createdAt,value
2022-08-28T00:00:25.765Z,99083.66
2022-08-28T00:02:53.380Z,99071.22
2022-08-28T00:05:22.126Z,99008.03
2022-08-28T00:07:49.182Z,98959.69
2022-08-28T00:10:18.007Z,99071.22
2022-08-28T00:12:47.040Z,99047.88
2022-08-28T00:15:17.513Z,98962.00
2022-08-28T00:17:44.836Z,99010.81
2022-08-28T00:20:14.099Z,99059.50
2022-08-28T00:22:41.618Z,99053.88
2022-08-28T00:25:11.004Z,98987.81
2022-08-28T00:27:53.404Z,98968.03
2022-08-28T00:30:24.784Z,99049.66
2022-08-28T00:32:53.606Z,99025.69
2022-08-28T00:35:21.788Z,99023.59
2022-08-28T00:37:48.455Z,99036.16
2022-08-28T00:40:19.964Z,99037.63
2022-08-28T00:42:58.493Z,98962.91
2022-08-28T00:45:26.623Z,98941.47
2022-08-28T00:47:53.273Z,99019.75
2022-08-28T00:50:23.911Z,99055.28
2022-08-28T00:52:55.567Z,99008.16
2022-08-28T00:55:24.895Z,99081.88
2022-08-28T00:57:56.540Z,99049.63
2022-08-28T01:00:35.399Z,99050.03
2022-08-28T01:03:03.332Z,99041.63
2022-08-28T01:05:30.173Z,99041.84
2022-08-28T01:07:58.888Z,99023.88
2022-08-28T01:10:30.658Z,99054.91
2022-08-28T01:12:57.925Z,99012.56
2022-08-28T01:15:32.397Z,99032.81
2022-08-28T01:18:07.849Z,99035.19
2022-08-28T01:20:38.101Z,99039.84
2022-08-28T01:23:53.197Z,98968.41
2022-08-28T01:26:20.465Z,98966.88
2022-08-28T01:28:47.505Z,99001.31
2022-08-28T01:31:16.038Z,99036.16
2022-08-28T01:33:44.779Z,99063.25
2022-08-28T01:36:12.785Z,99020.56
2022-08-28T01:38:42.491Z,99024.75
2022-08-28T01:41:09.275Z,99022.19
2022-08-28T01:43:36.626Z,98937.75
2022-08-28T01:46:05.790Z,99044.00
2022-08-28T01:48:36.212Z,98976.25
2022-08-28T01:51:05.207Z,98819.22
2022-08-28T01:53:32.612Z,98947.16
2022-08-28T01:56:02.966Z,99009.63
2022-08-28T01:58:34.928Z,99013.81
2022-08-28T02:01:17.040Z,98958.53
2022-08-28T02:03:43.925Z,98927.81
2022-08-28T02:06:11.139Z,99009.44
2022-08-28T02:08:37.749Z,98926.00
2022-08-28T02:11:08.163Z,99008.25
2022-08-28T02:13:39.975Z,98992.72
2022-08-28T02:16:09.258Z,98982.97
2022-08-28T02:18:37.873Z,99011.88
2022-08-28T02:21:06.475Z,98942.75
2022-08-28T02:23:33.698Z,99010.25
2022-08-28T02:26:00.572Z,98999.66
2022-08-28T02:28:27.390Z,98900.56
2022-08-28T02:30:53.970Z,98938.94
2022-08-28T02:33:20.993Z,99006.69
2022-08-28T02:35:47.650Z,99008.84
2022-08-28T02:38:14.224Z,99007.28
2022-08-28T02:40:41.327Z,98969.28
2022-08-28T02:43:07.927Z,98995.44
2022-08-28T02:45:34.971Z,98997.53
2022-08-28T02:48:02.076Z,98867.53
2022-08-28T02:50:31.049Z,98994.03
2022-08-28T02:52:57.987Z,98919.38
2022-08-28T02:55:25.876Z,98995.94
2022-08-28T02:57:54.572Z,98918.72
2022-08-28T03:00:25.759Z,98992.66
2022-08-28T03:02:53.224Z,98975.28
2022-08-28T03:05:23.405Z,99007.19
2022-08-28T03:07:51.231Z,98999.09
2022-08-28T03:10:18.651Z,98994.16
2022-08-28T03:12:45.445Z,98912.88
2022-08-28T03:15:12.473Z,98997.75
2022-08-28T03:17:39.168Z,98997.56
2022-08-28T03:20:08.800Z,98891.38
2022-08-28T03:22:54.079Z,98990.72
2022-08-28T03:25:22.286Z,98987.41
2022-08-28T03:27:49.639Z,98997.00
2022-08-28T03:30:17.495Z,98989.72
2022-08-28T03:32:44.086Z,98960.44
2022-08-28T03:35:11.970Z,99010.50
2022-08-28T03:37:39.027Z,98990.88
2022-08-28T03:40:07.702Z,98988.06
2022-08-28T03:42:35.146Z,98902.22
2022-08-28T03:45:02.155Z,98982.78
2022-08-28T03:47:29.626Z,98991.34
2022-08-28T03:49:57.759Z,98916.59
2022-08-28T03:52:24.890Z,98984.84
2022-08-28T03:54:52.495Z,98985.59
2022-08-28T03:57:20.677Z,98982.88
2022-08-28T03:59:48.822Z,98985.34
2022-08-28T04:02:15.559Z,98965.09
2022-08-28T04:04:42.120Z,98965.22
2022-08-28T04:07:08.734Z,98888.91
2022-08-28T04:09:35.305Z,98981.69
2022-08-28T04:12:02.072Z,98991.03
2022-08-28T04:14:28.729Z,98983.41
2022-08-28T04:16:59.698Z,98708.09
2022-08-28T04:19:27.918Z,98987.78
2022-08-28T04:21:54.446Z,98964.09
2022-08-28T04:24:21.607Z,98996.91
2022-08-28T04:26:48.549Z,98992.16
2022-08-28T04:29:16.034Z,98967.81
2022-08-28T04:31:42.833Z,98911.03
2022-08-28T04:34:10.442Z,98961.41
2022-08-28T04:36:38.169Z,98980.19
2022-08-28T04:39:08.499Z,98976.09
2022-08-28T04:41:37.527Z,98939.31
2022-08-28T04:44:05.519Z,98977.19
2022-08-28T04:46:32.337Z,98884.34
2022-08-28T04:48:59.469Z,98973.19
2022-08-28T04:51:26.625Z,98972.38
2022-08-28T04:53:53.211Z,98879.44
2022-08-28T04:56:19.793Z,98952.94
2022-08-28T04:58:46.344Z,98966.25
2022-08-28T05:01:18.639Z,98937.22
2022-08-28T05:03:47.261Z,98964.47
2022-08-28T05:06:15.796Z,98997.56
2022-08-28T05:08:42.694Z,98953.16
2022-08-28T05:11:33.616Z,98960.47
2022-08-28T05:14:04.494Z,98932.09
2022-08-28T05:16:32.099Z,98891.63
2022-08-28T05:19:03.473Z,98963.63
2022-08-28T05:21:30.111Z,98972.03
2022-08-28T05:23:57.878Z,98969.38
2022-08-28T05:26:27.242Z,98907.78
2022-08-28T05:28:57.224Z,98947.50
2022-08-28T05:31:25.212Z,98867.56
2022-08-28T05:33:53.030Z,98971.16
2022-08-28T05:36:22.855Z,98882.13
2022-08-28T05:38:51.327Z,98786.34
2022-08-28T05:41:28.343Z,98956.28
2022-08-28T05:43:54.936Z,98945.66
2022-08-28T05:46:22.322Z,98945.44
2022-08-28T05:48:49.620Z,98937.19
2022-08-28T05:51:20.093Z,98976.44
2022-08-28T05:53:50.288Z,98976.88
2022-08-28T05:56:19.770Z,98497.72
2022-08-28T05:58:46.490Z,98873.22
2022-08-28T06:01:16.647Z,98965.78
2022-08-28T06:03:47.532Z,98987.97
2022-08-28T06:06:14.103Z,98909.47
2022-08-28T06:08:58.073Z,98914.47
2022-08-28T06:11:26.867Z,98902.53
2022-08-28T06:13:53.469Z,98958.88
2022-08-28T06:16:21.160Z,98958.69
2022-08-28T06:18:47.952Z,98959.31
2022-08-28T06:21:14.568Z,98952.16
2022-08-28T06:23:41.199Z,98919.50
2022-08-28T06:26:07.807Z,98958.91
2022-08-28T06:28:34.426Z,98921.38
2022-08-28T06:31:23.784Z,98964.69
2022-08-28T06:33:50.343Z,98947.47
2022-08-28T06:36:17.085Z,98831.38
2022-08-28T06:38:46.595Z,98942.44
2022-08-28T06:41:14.589Z,98917.94
2022-08-28T06:43:41.477Z,98936.75
2022-08-28T06:46:08.633Z,98862.69
2022-08-28T06:48:35.310Z,98888.84
2022-08-28T06:51:06.850Z,98880.25
2022-08-28T06:53:33.584Z,98931.22
2022-08-28T06:56:06.466Z,98929.84
2022-08-28T06:58:34.180Z,98835.88
2022-08-28T07:01:03.197Z,98932.53
2022-08-28T07:03:33.217Z,98892.81
2022-08-28T07:06:01.412Z,98916.72
2022-08-28T07:08:29.348Z,98859.84
2022-08-28T07:10:58.075Z,98888.41
2022-08-28T07:13:25.783Z,98741.00
2022-08-28T07:15:52.434Z,98910.00
2022-08-28T07:18:19.343Z,98904.28
2022-08-28T07:20:54.353Z,98902.78
2022-08-28T07:23:20.936Z,98830.00
2022-08-28T07:25:47.562Z,98910.00
2022-08-28T07:28:14.435Z,98875.41
2022-08-28T07:30:41.115Z,98874.78
2022-08-28T07:33:08.064Z,98883.63
2022-08-28T07:35:34.702Z,98774.50
2022-08-28T07:38:01.236Z,98848.25
2022-08-28T07:40:27.884Z,98840.19
2022-08-28T07:43:12.851Z,98883.78
2022-08-28T07:45:39.520Z,98874.66
2022-08-28T07:48:11.345Z,98904.19
2022-08-28T07:50:38.603Z,98756.31
2022-08-28T07:53:08.122Z,98871.09
2022-08-28T07:55:34.750Z,98884.88
2022-08-28T07:58:02.269Z,98890.94
2022-08-28T08:00:28.831Z,98891.66
2022-08-28T08:02:55.349Z,98888.50
2022-08-28T08:05:21.971Z,98851.41
2022-08-28T08:07:48.522Z,98866.66
2022-08-28T08:10:15.167Z,98866.56
2022-08-28T08:12:47.275Z,98883.66
2022-08-28T08:15:13.889Z,98886.19
2022-08-28T08:17:40.649Z,98887.63
2022-08-28T08:20:08.578Z,98832.59
2022-08-28T08:22:35.865Z,98870.38
2022-08-28T08:25:05.062Z,98885.19
2022-08-28T08:27:38.797Z,98866.22
2022-08-28T08:30:08.258Z,98849.38
2022-08-28T08:32:34.856Z,98882.16
2022-08-28T08:35:01.771Z,98880.72
2022-08-28T08:37:28.338Z,98711.31
2022-08-28T08:39:55.167Z,98879.19
2022-08-28T08:42:27.782Z,98837.28
2022-08-28T08:44:58.929Z,98881.31
2022-08-28T08:47:47.594Z,98879.03
2022-08-28T08:50:28.978Z,98876.78
2022-08-28T08:53:19.352Z,98890.69
2022-08-28T08:55:52.620Z,98857.81
2022-08-28T08:58:31.583Z,98877.53
2022-08-28T09:01:20.443Z,98875.63
2022-08-28T09:03:55.491Z,98877.66
2022-08-28T09:06:59.530Z,98879.88
2022-08-28T09:09:37.383Z,98883.63
2022-08-28T09:12:07.973Z,98828.94
2022-08-28T09:14:34.708Z,98872.78
2022-08-28T09:17:01.675Z,98876.94
2022-08-28T09:19:29.498Z,98783.53
2022-08-28T09:21:56.412Z,98883.28
2022-08-28T09:24:26.720Z,98904.63
2022-08-28T09:27:05.928Z,98871.91
2022-08-28T09:29:39.957Z,98881.50
2022-08-28T09:32:25.893Z,98907.56
2022-08-28T09:35:22.694Z,98879.41
2022-08-28T09:37:49.293Z,98885.22
2022-08-28T09:40:50.856Z,98788.66
2022-08-28T09:43:26.700Z,98791.91
2022-08-28T09:46:01.321Z,98882.38
2022-08-28T09:48:39.922Z,98878.22
2022-08-28T09:51:14.062Z,98875.50
2022-08-28T09:54:21.894Z,98861.59
2022-08-28T09:56:50.043Z,98767.03
2022-08-28T09:59:19.281Z,98783.47
2022-08-28T10:02:10.480Z,98845.22
2022-08-28T10:04:50.058Z,98855.22
2022-08-28T10:07:49.369Z,98863.41
2022-08-28T10:10:53.696Z,98832.03
2022-08-28T10:13:31.196Z,98860.97
2022-08-28T10:16:37.533Z,98883.44
2022-08-28T10:19:33.638Z,98862.97
2022-08-28T10:22:21.205Z,98886.69
2022-08-28T10:25:07.632Z,98854.91
2022-08-28T10:27:54.690Z,98846.06
2022-08-28T10:30:24.222Z,98776.22
2022-08-28T10:32:59.997Z,98841.59
2022-08-28T10:35:49.266Z,98825.94
2022-08-28T10:38:19.741Z,98740.06
2022-08-28T10:40:55.310Z,98836.72
2022-08-28T10:43:43.598Z,98840.97
2022-08-28T10:46:23.065Z,98835.19
2022-08-28T10:49:01.161Z,98820.13
2022-08-28T10:51:35.393Z,98834.81
2022-08-28T10:54:37.200Z,98833.59
2022-08-28T10:57:10.999Z,98827.94
2022-08-28T10:59:41.914Z,98763.31
2022-08-28T11:02:13.616Z,98827.50
2022-08-28T11:04:40.588Z,98790.75
2022-08-28T11:07:11.389Z,98828.06
2022-08-28T11:09:46.014Z,98822.22
2022-08-28T11:12:19.699Z,98829.03
2022-08-28T11:14:49.545Z,98819.09
2022-08-28T11:17:22.117Z,98831.41
2022-08-28T11:19:57.878Z,98827.81
2022-08-28T11:22:36.730Z,98827.38
2022-08-28T11:25:13.881Z,98826.38
2022-08-28T11:28:00.689Z,98829.75
2022-08-28T11:30:34.080Z,98825.97
2022-08-28T11:33:03.660Z,98637.25
2022-08-28T11:35:30.161Z,98819.53
2022-08-28T11:37:58.391Z,98794.84
2022-08-28T11:40:28.022Z,98824.78
2022-08-28T11:43:29.914Z,98821.56
2022-08-28T11:45:56.460Z,98816.56
2022-08-28T11:48:23.273Z,98818.69
2022-08-28T11:50:54.880Z,98763.41
2022-08-28T11:53:39.303Z,98811.47
2022-08-28T11:56:33.287Z,98813.34
2022-08-28T11:59:13.986Z,98810.72
2022-08-28T12:01:40.691Z,98810.63
2022-08-28T12:04:15.232Z,98805.38
2022-08-28T12:06:45.019Z,98805.75
2022-08-28T12:09:31.221Z,98799.41
2022-08-28T12:12:05.235Z,98562.06
2022-08-28T12:14:41.051Z,98804.03
2022-08-28T12:17:30.498Z,98804.78
2022-08-28T12:20:28.391Z,98806.56
2022-08-28T12:22:59.038Z,98805.25
2022-08-28T12:25:33.633Z,98773.69
2022-08-28T12:28:07.960Z,98760.38
2022-08-28T12:31:05.678Z,98821.00
2022-08-28T12:33:49.713Z,98795.03
2022-08-28T12:36:17.469Z,98777.13
2022-08-28T12:38:50.873Z,98787.84
2022-08-28T12:41:18.483Z,98710.81
2022-08-28T12:43:50.496Z,98787.63
2022-08-28T12:46:28.780Z,98801.03
2022-08-28T12:49:01.222Z,98645.44
2022-08-28T12:51:31.386Z,98631.00
2022-08-28T12:54:04.019Z,98680.13
2022-08-28T12:56:34.444Z,98781.19
2022-08-28T12:59:35.604Z,98783.75
2022-08-28T13:02:10.547Z,98610.03
2022-08-28T13:04:51.924Z,98778.94
2022-08-28T13:07:26.121Z,98682.97
2022-08-28T13:09:55.037Z,98677.75
2022-08-28T13:12:54.777Z,98817.28
2022-08-28T13:15:42.766Z,98790.66
2022-08-28T13:18:09.808Z,98775.84
2022-08-28T13:20:38.075Z,98775.22
2022-08-28T13:23:05.347Z,98795.78
2022-08-28T13:25:35.837Z,98768.88
2022-08-28T13:28:14.545Z,98783.16
2022-08-28T13:30:41.379Z,98754.44
2022-08-28T13:33:21.756Z,98527.59
2022-08-28T13:35:49.069Z,98779.47
2022-08-28T13:38:21.207Z,98698.44
2022-08-28T13:40:58.803Z,98788.81
2022-08-28T13:43:28.535Z,98678.41
2022-08-28T13:45:55.149Z,98781.25
2022-08-28T13:48:24.833Z,98787.59
2022-08-28T13:51:07.559Z,98739.38
2022-08-28T13:53:38.625Z,98766.34
2022-08-28T13:56:06.283Z,98793.84
2022-08-28T13:58:33.141Z,98761.53
2022-08-28T14:01:00.529Z,98779.28
2022-08-28T14:03:37.495Z,98774.13
2022-08-28T14:06:14.148Z,98775.75
2022-08-28T14:08:43.281Z,98780.06
2022-08-28T14:11:13.098Z,98655.34
2022-08-28T14:13:41.053Z,98764.63
2022-08-28T14:16:16.766Z,98718.66
2022-08-28T14:18:43.448Z,98705.34
2022-08-28T14:21:10.011Z,98784.66
2022-08-28T14:23:36.609Z,98719.56
2022-08-28T14:26:05.460Z,98631.09
2022-08-28T14:28:32.511Z,98756.34
2022-08-28T14:30:59.117Z,98775.03
2022-08-28T14:33:25.919Z,98784.69
2022-08-28T14:35:52.952Z,98774.38
2022-08-28T14:38:19.556Z,98744.94
2022-08-28T14:40:46.261Z,98773.03
2022-08-28T14:43:14.645Z,98777.03
2022-08-28T14:45:49.966Z,98795.16
2022-08-28T14:48:18.740Z,98773.47
2022-08-28T14:50:49.145Z,98776.28
2022-08-28T14:53:16.997Z,98774.50
2022-08-28T14:55:49.390Z,98746.50
2022-08-28T14:58:17.574Z,98814.88
2022-08-28T15:00:48.098Z,98777.81
2022-08-28T15:03:15.964Z,98767.81
2022-08-28T15:05:42.888Z,98648.34
2022-08-28T15:08:11.435Z,98746.94
2022-08-28T15:10:39.482Z,98770.31
2022-08-28T15:13:07.675Z,98754.59
2022-08-28T15:15:36.386Z,98769.97
2022-08-28T15:18:02.924Z,98777.53
2022-08-28T15:20:29.909Z,98756.59
2022-08-28T15:22:56.570Z,98782.28
2022-08-28T15:25:23.331Z,98774.94
2022-08-28T15:27:49.967Z,98768.53
2022-08-28T15:30:16.551Z,98778.56
2022-08-28T15:32:46.096Z,98516.56
2022-08-28T15:35:12.732Z,98777.56
2022-08-28T15:37:39.739Z,98744.88
2022-08-28T15:40:25.624Z,98777.75
2022-08-28T15:42:52.488Z,98775.88
2022-08-28T15:45:20.152Z,98769.69
2022-08-28T15:47:46.861Z,98716.25
2022-08-28T15:50:16.038Z,98764.75
2022-08-28T15:52:46.789Z,98769.91
2022-08-28T15:55:13.786Z,98769.44
2022-08-28T15:57:40.439Z,98752.03
2022-08-28T16:00:10.332Z,98775.72
2022-08-28T16:02:38.315Z,98777.00
2022-08-28T16:05:06.056Z,98678.38
2022-08-28T16:07:32.832Z,98767.44
2022-08-28T16:09:59.410Z,98617.44
2022-08-28T16:12:26.389Z,98706.31
2022-08-28T16:14:53.132Z,98706.31
2022-08-28T16:17:20.017Z,98775.44
2022-08-28T16:19:46.746Z,98692.19
2022-08-28T16:22:15.889Z,98777.00
2022-08-28T16:24:43.108Z,98782.97
2022-08-28T16:27:14.620Z,98761.41
2022-08-28T16:29:42.021Z,98747.75
2022-08-28T16:32:09.479Z,98752.03
2022-08-28T16:34:38.954Z,98782.19
2022-08-28T16:37:07.833Z,98782.25
2022-08-28T16:39:35.425Z,98706.50
2022-08-28T16:42:02.096Z,98743.56
2022-08-28T16:44:28.740Z,98745.25
2022-08-28T16:46:56.389Z,98788.56
2022-08-28T16:49:23.748Z,98781.88
2022-08-28T16:51:50.510Z,98792.31
2022-08-28T16:54:21.417Z,98748.13
2022-08-28T16:56:48.173Z,98522.94
2022-08-28T16:59:23.472Z,98765.47
2022-08-28T17:01:53.139Z,98746.38
2022-08-28T17:04:21.219Z,98786.97
2022-08-28T17:06:47.844Z,98727.28
2022-08-28T17:09:14.546Z,98725.50
2022-08-28T17:11:41.088Z,98794.53
2022-08-28T17:14:09.086Z,98801.34
2022-08-28T17:16:35.753Z,98805.41
2022-08-28T17:19:02.716Z,98803.59
2022-08-28T17:21:47.944Z,98760.78
2022-08-28T17:24:14.843Z,98805.06
2022-08-28T17:26:42.384Z,98769.81
2022-08-28T17:29:09.511Z,98763.28
2022-08-28T17:31:36.884Z,98773.91
2022-08-28T17:34:03.779Z,98804.94
2022-08-28T17:36:33.959Z,98812.72
2022-08-28T17:39:08.060Z,98596.59
2022-08-28T17:41:35.517Z,98794.97
2022-08-28T17:44:04.951Z,98802.13
2022-08-28T17:46:37.517Z,98736.59
2022-08-28T17:49:05.884Z,98802.75
2022-08-28T17:51:42.685Z,98751.69
2022-08-28T17:54:15.608Z,98750.31
2022-08-28T17:56:42.558Z,98806.84
2022-08-28T17:59:10.132Z,98812.16
2022-08-28T18:01:38.407Z,98815.22
2022-08-28T18:04:05.519Z,98816.44
2022-08-28T18:06:34.840Z,98814.59
2022-08-28T18:09:01.609Z,98807.66
2022-08-28T18:11:29.111Z,98753.31
2022-08-28T18:13:55.765Z,98815.84
2022-08-28T18:16:23.825Z,98828.09
2022-08-28T18:18:51.925Z,98803.78
2022-08-28T18:21:19.196Z,98673.50
2022-08-28T18:23:46.336Z,98803.59
2022-08-28T18:26:13.458Z,98798.06
2022-08-28T18:28:40.391Z,98806.03
2022-08-28T18:31:07.856Z,98784.72
2022-08-28T18:33:37.112Z,98804.34
2022-08-28T18:36:08.839Z,98732.63
2022-08-28T18:38:35.635Z,98806.38
2022-08-28T18:41:04.249Z,98777.56
2022-08-28T18:43:31.418Z,98805.09
2022-08-28T18:46:00.416Z,98814.03
2022-08-28T18:48:31.542Z,98788.72
2022-08-28T18:50:58.232Z,98798.34
2022-08-28T18:53:25.103Z,98815.91
2022-08-28T18:55:53.828Z,98800.59
2022-08-28T18:58:22.059Z,98620.75
2022-08-28T19:00:49.454Z,98785.84
2022-08-28T19:03:18.763Z,98764.00
2022-08-28T19:05:45.397Z,98794.03
2022-08-28T19:08:14.114Z,98785.84
2022-08-28T19:10:41.512Z,98758.09
2022-08-28T19:13:08.579Z,98788.31
2022-08-28T19:15:40.733Z,98786.06
2022-08-28T19:18:11.273Z,98729.25
2022-08-28T19:20:37.865Z,98797.91
2022-08-28T19:23:07.182Z,98675.44
2022-08-28T19:25:33.784Z,98735.09
2022-08-28T19:28:01.682Z,98737.09
2022-08-28T19:30:32.821Z,98798.75
2022-08-28T19:33:00.908Z,98725.56
2022-08-28T19:35:27.653Z,98796.47
2022-08-28T19:37:54.404Z,98793.38
2022-08-28T19:40:22.195Z,98797.63
2022-08-28T19:42:54.301Z,98803.94
2022-08-28T19:45:21.282Z,98772.44
2022-08-28T19:47:48.249Z,98794.97
2022-08-28T19:50:15.801Z,98802.09
2022-08-28T19:52:46.424Z,98784.69
2022-08-28T19:55:22.164Z,98615.94
2022-08-28T19:57:49.308Z,98750.56
2022-08-28T20:00:31.794Z,98794.38
2022-08-28T20:02:59.368Z,98709.47
2022-08-28T20:05:26.099Z,98775.06
2022-08-28T20:07:52.750Z,98724.59
2022-08-28T20:10:19.553Z,98797.63
2022-08-28T20:12:48.357Z,98796.19
2022-08-28T20:15:17.183Z,98778.13
2022-08-28T20:17:49.525Z,98779.34
2022-08-28T20:20:18.854Z,98824.00
2022-08-28T20:22:45.567Z,98804.03
2022-08-28T20:25:12.310Z,98776.44
2022-08-28T20:27:41.701Z,98799.75
2022-08-28T20:30:11.158Z,98641.13
2022-08-28T20:32:39.962Z,98798.19
2022-08-28T20:35:08.744Z,98800.53
2022-08-28T20:37:41.047Z,98657.00
2022-08-28T20:40:18.316Z,98662.09
2022-08-28T20:42:47.692Z,98757.47
2022-08-28T20:45:15.951Z,98807.53
2022-08-28T20:47:43.428Z,98736.59
2022-08-28T20:50:11.212Z,98756.38
2022-08-28T20:52:38.518Z,98815.16
2022-08-28T20:55:07.641Z,98767.19
2022-08-28T20:57:35.238Z,98705.28
2022-08-28T21:00:05.787Z,98785.00
2022-08-28T21:02:33.084Z,98818.50
2022-08-28T21:05:00.806Z,98713.13
2022-08-28T21:07:27.905Z,98816.75
2022-08-28T21:10:05.633Z,98819.22
2022-08-28T21:12:38.865Z,98688.63
2022-08-28T21:15:08.417Z,98786.63
2022-08-28T21:17:35.586Z,98760.91
2022-08-28T21:20:09.217Z,98653.72
2022-08-28T21:22:37.508Z,98809.44
2022-08-28T21:25:09.573Z,98806.34
2022-08-28T21:27:38.091Z,98832.78
2022-08-28T21:30:06.437Z,98805.34
2022-08-28T21:32:34.080Z,98719.50
2022-08-28T21:35:02.392Z,98774.41
2022-08-28T21:37:29.432Z,98797.78
2022-08-28T21:39:59.148Z,98775.22
2022-08-28T21:42:26.883Z,98787.34
2022-08-28T21:44:54.625Z,98786.72
2022-08-28T21:47:23.096Z,98801.28
2022-08-28T21:49:51.700Z,98789.63
2022-08-28T21:52:19.686Z,98676.53
2022-08-28T21:54:46.582Z,98671.56
2022-08-28T21:57:13.575Z,98778.25
2022-08-28T21:59:40.524Z,98691.84
2022-08-28T22:02:07.476Z,98728.88
2022-08-28T22:04:34.881Z,98781.34
2022-08-28T22:07:02.103Z,98729.34
2022-08-28T22:09:29.148Z,98681.75
2022-08-28T22:11:56.112Z,98778.16
2022-08-28T22:14:25.122Z,98773.88
2022-08-28T22:16:52.269Z,98772.97
2022-08-28T22:19:19.508Z,98673.97
2022-08-28T22:22:04.506Z,98761.47
2022-08-28T22:24:31.377Z,98764.19
2022-08-28T22:26:58.307Z,98689.13
2022-08-28T22:29:25.677Z,98769.28
2022-08-28T22:31:53.008Z,98749.59
2022-08-28T22:34:20.206Z,98760.44
2022-08-28T22:36:47.115Z,98760.97
2022-08-28T22:39:14.198Z,98755.34
2022-08-28T22:41:42.061Z,98702.00
2022-08-28T22:44:09.965Z,98755.16
2022-08-28T22:46:36.834Z,98745.97
2022-08-28T22:49:04.228Z,98754.88
2022-08-28T22:51:33.569Z,98761.44
2022-08-28T22:54:00.367Z,98632.19
2022-08-28T22:56:27.043Z,98742.97
2022-08-28T22:58:53.817Z,98718.56
2022-08-28T23:01:24.252Z,98729.97
2022-08-28T23:03:51.338Z,98756.16
2022-08-28T23:06:18.743Z,98720.75
2022-08-28T23:08:45.425Z,98743.22
2022-08-28T23:11:12.142Z,98741.59
2022-08-28T23:13:39.274Z,98689.53
2022-08-28T23:16:06.150Z,98669.03
2022-08-28T23:19:03.908Z,98745.94
2022-08-28T23:21:26.423Z,98733.22
2022-08-28T23:23:55.055Z,98598.63
2022-08-28T23:26:22.725Z,98672.91
2022-08-28T23:28:49.377Z,98749.97
2022-08-28T23:31:16.125Z,98754.13
2022-08-28T23:33:43.300Z,98673.84
2022-08-28T23:36:10.537Z,98690.66
2022-08-28T23:38:40.784Z,98751.22
2022-08-28T23:41:10.836Z,98760.13
2022-08-28T23:43:38.275Z,98755.69
2022-08-28T23:46:06.440Z,98658.63
2022-08-28T23:48:33.620Z,98755.38
2022-08-28T23:51:01.995Z,98755.38
2022-08-28T23:53:29.679Z,98736.69
2022-08-28T23:55:57.408Z,98713.81
2022-08-28T23:58:31.842Z,98759.28
